sensor_id;sensor_type;location;lat;lon;timestamp;P1;durP1;ratioP1;P2;durP2;ratioP2
11761;SDS011;5938;47.098;15.474;2022-07-29T09:20:36;5.17;;;4.77;;
11761;SDS011;5938;47.098;15.474;2022-07-29T09:24:57;5.70;;;5.30;;
11761;SDS011;5938;47.098;15.474;2022-07-29T09:29:07;5.57;;;5.17;;
11761;SDS011;5938;47.098;15.474;2022-07-29T09:33:12;9.03;;;5.20;;
11761;SDS011;5938;47.098;15.474;2022-07-29T09:41:47;5.97;;;5.47;;
11761;SDS011;5938;47.098;15.474;2022-07-29T09:45:51;5.47;;;5.07;;
11761;SDS011;5938;47.098;15.474;2022-07-29T09:49:55;5.23;;;4.83;;
11761;SDS011;5938;47.098;15.474;2022-07-29T09:54:02;6.03;;;5.63;;
11761;SDS011;5938;47.098;15.474;2022-07-29T09:58:24;5.80;;;5.30;;
11761;SDS011;5938;47.098;15.474;2022-07-29T10:02:29;6.53;;;5.70;;
11761;SDS011;5938;47.098;15.474;2022-07-29T10:06:34;5.57;;;5.17;;
11761;SDS011;5938;47.098;15.474;2022-07-29T10:10:39;5.53;;;5.03;;
11761;SDS011;5938;47.098;15.474;2022-07-29T10:14:43;4.97;;;4.57;;
11761;SDS011;5938;47.098;15.474;2022-07-29T10:18:47;5.63;;;5.23;;
11761;SDS011;5938;47.098;15.474;2022-07-29T10:22:53;5.70;;;5.30;;
11761;SDS011;5938;47.098;15.474;2022-07-29T10:26:59;5.13;;;4.73;;
11761;SDS011;5938;47.098;15.474;2022-07-29T10:31:03;5.50;;;5.00;;
11761;SDS011;5938;47.098;15.474;2022-07-29T10:35:15;5.67;;;4.73;;
11761;SDS011;5938;47.098;15.474;2022-07-29T10:39:44;5.80;;;5.30;;
11761;SDS011;5938;47.098;15.474;2022-07-29T10:43:59;5.50;;;5.10;;
11761;SDS011;5938;47.098;15.474;2022-07-29T10:48:04;6.57;;;5.30;;
11761;SDS011;5938;47.098;15.474;2022-07-29T10:52:08;6.33;;;5.80;;
11761;SDS011;5938;47.098;15.474;2022-07-29T10:56:22;5.83;;;5.30;;
11761;SDS011;5938;47.098;15.474;2022-07-29T11:00:32;6.83;;;5.50;;
11761;SDS011;5938;47.098;15.474;2022-07-29T11:09:17;6.37;;;5.43;;
11761;SDS011;5938;47.098;15.474;2022-07-29T11:13:50;5.17;;;4.77;;
11761;SDS011;5938;47.098;15.474;2022-07-29T11:18:05;4.90;;;4.60;;
11761;SDS011;5938;47.098;15.474;2022-07-29T11:22:31;6.37;;;5.87;;
11761;SDS011;5938;47.098;15.474;2022-07-29T11:26:34;9.73;;;5.27;;
11761;SDS011;5938;47.098;15.474;2022-07-29T11:30:49;6.10;;;4.70;;
11761;SDS011;5938;47.098;15.474;2022-07-29T11:35:14;5.17;;;4.80;;
11761;SDS011;5938;47.098;15.474;2022-07-29T11:39:38;4.83;;;4.37;;
11761;SDS011;5938;47.098;15.474;2022-07-29T11:43:51;4.70;;;4.30;;
11761;SDS011;5938;47.098;15.474;2022-07-29T11:47:56;5.20;;;4.80;;
11761;SDS011;5938;47.098;15.474;2022-07-29T11:52:22;4.53;;;4.23;;
11761;SDS011;5938;47.098;15.474;2022-07-29T11:56:34;4.87;;;4.47;;
11761;SDS011;5938;47.098;15.474;2022-07-29T12:00:45;5.47;;;5.07;;
11761;SDS011;5938;47.098;15.474;2022-07-29T12:04:50;5.17;;;4.83;;
11761;SDS011;5938;47.098;15.474;2022-07-29T12:08:57;5.73;;;5.17;;
11761;SDS011;5938;47.098;15.474;2022-07-29T12:13:00;5.77;;;5.27;;
11761;SDS011;5938;47.098;15.474;2022-07-29T12:17:03;10.10;;;5.50;;
11761;SDS011;5938;47.098;15.474;2022-07-29T12:21:06;5.03;;;4.63;;
11761;SDS011;5938;47.098;15.474;2022-07-29T12:25:14;5.50;;;5.00;;
11761;SDS011;5938;47.098;15.474;2022-07-29T12:29:35;5.40;;;4.90;;
11761;SDS011;5938;47.098;15.474;2022-07-29T12:33:38;5.50;;;4.73;;
11761;SDS011;5938;47.098;15.474;2022-07-29T12:37:42;6.43;;;5.07;;
11761;SDS011;5938;47.098;15.474;2022-07-29T12:41:49;6.40;;;5.80;;
11761;SDS011;5938;47.098;15.474;2022-07-29T12:46:11;5.80;;;5.33;;
11761;SDS011;5938;47.098;15.474;2022-07-29T12:50:16;5.73;;;5.23;;
11761;SDS011;5938;47.098;15.474;2022-07-29T12:54:26;5.87;;;5.47;;
11761;SDS011;5938;47.098;15.474;2022-07-29T12:58:31;6.50;;;6.00;;
11761;SDS011;5938;47.098;15.474;2022-07-29T13:02:37;5.97;;;5.57;;
11761;SDS011;5938;47.098;15.474;2022-07-29T13:06:41;5.80;;;5.40;;
11761;SDS011;5938;47.098;15.474;2022-07-29T13:10:50;6.63;;;6.03;;
11761;SDS011;5938;47.098;15.474;2022-07-29T13:14:55;6.00;;;5.57;;
11761;SDS011;5938;47.098;15.474;2022-07-29T13:19:05;6.67;;;6.00;;
11761;SDS011;5938;47.098;15.474;2022-07-29T13:23:16;5.37;;;4.97;;
11761;SDS011;5938;47.098;15.474;2022-07-29T13:27:29;6.80;;;5.53;;
11761;SDS011;5938;47.098;15.474;2022-07-29T13:31:35;6.50;;;5.90;;
11761;SDS011;5938;47.098;15.474;2022-07-29T13:35:38;6.43;;;5.90;;
11761;SDS011;5938;47.098;15.474;2022-07-29T13:39:42;5.13;;;4.80;;
11761;SDS011;5938;47.098;15.474;2022-07-29T13:43:53;6.80;;;6.13;;
11761;SDS011;5938;47.098;15.474;2022-07-29T13:47:58;5.87;;;5.33;;
11761;SDS011;5938;47.098;15.474;2022-07-29T13:52:01;7.53;;;5.60;;
11761;SDS011;5938;47.098;15.474;2022-07-29T13:56:08;5.33;;;4.93;;
11761;SDS011;5938;47.098;15.474;2022-07-29T14:00:12;5.80;;;5.13;;
11761;SDS011;5938;47.098;15.474;2022-07-29T14:04:17;5.97;;;5.33;;
11761;SDS011;5938;47.098;15.474;2022-07-29T14:08:21;5.23;;;4.90;;
11761;SDS011;5938;47.098;15.474;2022-07-29T14:12:24;5.90;;;5.40;;
11761;SDS011;5938;47.098;15.474;2022-07-29T14:16:28;5.77;;;5.27;;
11761;SDS011;5938;47.098;15.474;2022-07-29T14:20:33;6.10;;;5.60;;
11761;SDS011;5938;47.098;15.474;2022-07-29T14:24:36;5.30;;;4.80;;
11761;SDS011;5938;47.098;15.474;2022-07-29T14:28:41;5.67;;;5.17;;
11761;SDS011;5938;47.098;15.474;2022-07-29T14:32:45;5.20;;;4.70;;
11761;SDS011;5938;47.098;15.474;2022-07-29T14:36:49;6.43;;;5.90;;
11761;SDS011;5938;47.098;15.474;2022-07-29T14:40:53;6.93;;;5.70;;
11761;SDS011;5938;47.098;15.474;2022-07-29T14:44:56;6.40;;;5.90;;
11761;SDS011;5938;47.098;15.474;2022-07-29T14:49:00;5.80;;;5.03;;
11761;SDS011;5938;47.098;15.474;2022-07-29T14:53:05;5.80;;;5.40;;
11761;SDS011;5938;47.098;15.474;2022-07-29T14:57:08;6.97;;;6.37;;
11761;SDS011;5938;47.098;15.474;2022-07-29T15:01:12;5.53;;;5.13;;
11761;SDS011;5938;47.098;15.474;2022-07-29T15:05:15;6.43;;;5.93;;
11761;SDS011;5938;47.098;15.474;2022-07-29T15:09:20;6.87;;;6.37;;
11761;SDS011;5938;47.098;15.474;2022-07-29T15:13:23;6.23;;;5.73;;
11761;SDS011;5938;47.098;15.474;2022-07-29T15:17:27;5.73;;;5.33;;
11761;SDS011;5938;47.098;15.474;2022-07-29T15:21:30;6.20;;;5.60;;
11761;SDS011;5938;47.098;15.474;2022-07-29T15:25:35;7.53;;;5.40;;
11761;SDS011;5938;47.098;15.474;2022-07-29T15:29:38;7.20;;;5.90;;
11761;SDS011;5938;47.098;15.474;2022-07-29T15:33:42;6.10;;;5.70;;
11761;SDS011;5938;47.098;15.474;2022-07-29T15:37:45;6.27;;;5.23;;
11761;SDS011;5938;47.098;15.474;2022-07-29T15:41:51;5.63;;;5.33;;
11761;SDS011;5938;47.098;15.474;2022-07-29T15:45:54;8.50;;;6.80;;
11761;SDS011;5938;47.098;15.474;2022-07-29T15:50:15;4.80;;;4.40;;
11761;SDS011;5938;47.098;15.474;2022-07-29T15:54:19;5.60;;;5.10;;
11761;SDS011;5938;47.098;15.474;2022-07-29T15:58:23;6.20;;;5.53;;
11761;SDS011;5938;47.098;15.474;2022-07-29T16:02:27;4.50;;;4.20;;
11761;SDS011;5938;47.098;15.474;2022-07-29T16:06:30;5.77;;;5.27;;
11761;SDS011;5938;47.098;15.474;2022-07-29T16:10:33;5.27;;;4.80;;
11761;SDS011;5938;47.098;15.474;2022-07-29T16:14:38;5.10;;;4.80;;
11761;SDS011;5938;47.098;15.474;2022-07-29T16:18:41;6.00;;;5.50;;
11761;SDS011;5938;47.098;15.474;2022-07-29T16:22:44;5.80;;;5.33;;
11761;SDS011;5938;47.098;15.474;2022-07-29T16:26:48;5.67;;;5.07;;
11761;SDS011;5938;47.098;15.474;2022-07-29T16:30:53;5.60;;;5.20;;
11761;SDS011;5938;47.098;15.474;2022-07-29T16:34:57;5.80;;;5.40;;
11761;SDS011;5938;47.098;15.474;2022-07-29T16:39:02;6.27;;;5.70;;
11761;SDS011;5938;47.098;15.474;2022-07-29T16:43:06;6.27;;;5.77;;
11761;SDS011;5938;47.098;15.474;2022-07-29T16:47:11;6.60;;;5.87;;
11761;SDS011;5938;47.098;15.474;2022-07-29T16:51:14;6.00;;;5.50;;
11761;SDS011;5938;47.098;15.474;2022-07-29T16:55:17;7.33;;;6.73;;
11761;SDS011;5938;47.098;15.474;2022-07-29T16:59:21;7.07;;;6.37;;
11761;SDS011;5938;47.098;15.474;2022-07-29T17:03:25;6.20;;;5.70;;
11761;SDS011;5938;47.098;15.474;2022-07-29T17:07:29;5.97;;;5.57;;
11761;SDS011;5938;47.098;15.474;2022-07-29T17:11:32;7.20;;;6.60;;
11761;SDS011;5938;47.098;15.474;2022-07-29T17:15:54;6.90;;;6.30;;
11761;SDS011;5938;47.098;15.474;2022-07-29T17:20:02;7.10;;;6.50;;
11761;SDS011;5938;47.098;15.474;2022-07-29T17:24:06;6.77;;;6.27;;
11761;SDS011;5938;47.098;15.474;2022-07-29T17:28:10;7.03;;;6.43;;
11761;SDS011;5938;47.098;15.474;2022-07-29T17:32:13;9.70;;;8.87;;
11761;SDS011;5938;47.098;15.474;2022-07-29T17:36:18;15.30;;;13.70;;
11761;SDS011;5938;47.098;15.474;2022-07-29T17:40:27;21.70;;;19.43;;
11761;SDS011;5938;47.098;15.474;2022-07-29T17:44:30;23.13;;;20.80;;
11761;SDS011;5938;47.098;15.474;2022-07-29T17:48:36;19.07;;;17.07;;
11761;SDS011;5938;47.098;15.474;2022-07-29T17:52:41;12.20;;;11.20;;
11761;SDS011;5938;47.098;15.474;2022-07-29T17:56:46;10.53;;;9.63;;
11761;SDS011;5938;47.098;15.474;2022-07-29T18:00:58;9.50;;;8.70;;
11761;SDS011;5938;47.098;15.474;2022-07-29T18:05:12;8.93;;;8.23;;
11761;SDS011;5938;47.098;15.474;2022-07-29T18:09:17;8.30;;;7.60;;
11761;SDS011;5938;47.098;15.474;2022-07-29T18:13:22;8.30;;;7.37;;
11761;SDS011;5938;47.098;15.474;2022-07-29T18:17:28;8.37;;;7.67;;
11761;SDS011;5938;47.098;15.474;2022-07-29T18:21:53;8.50;;;7.67;;
11761;SDS011;5938;47.098;15.474;2022-07-29T18:26:21;9.73;;;8.93;;
11761;SDS011;5938;47.098;15.474;2022-07-29T18:30:32;9.20;;;8.47;;
11761;SDS011;5938;47.098;15.474;2022-07-29T18:34:37;8.03;;;7.23;;
11761;SDS011;5938;47.098;15.474;2022-07-29T18:38:41;8.97;;;8.07;;
11761;SDS011;5938;47.098;15.474;2022-07-29T18:42:46;8.63;;;7.93;;
11761;SDS011;5938;47.098;15.474;2022-07-29T18:46:50;9.03;;;8.13;;
11761;SDS011;5938;47.098;15.474;2022-07-29T18:50:54;10.17;;;9.17;;
11761;SDS011;5938;47.098;15.474;2022-07-29T18:55:00;9.87;;;9.00;;
11761;SDS011;5938;47.098;15.474;2022-07-29T18:59:07;9.80;;;9.00;;
11761;SDS011;5938;47.098;15.474;2022-07-29T19:03:12;9.63;;;8.73;;
11761;SDS011;5938;47.098;15.474;2022-07-29T19:07:16;10.30;;;9.30;;
11761;SDS011;5938;47.098;15.474;2022-07-29T19:11:19;9.83;;;8.90;;
11761;SDS011;5938;47.098;15.474;2022-07-29T19:15:24;9.50;;;8.80;;
11761;SDS011;5938;47.098;15.474;2022-07-29T19:19:29;10.93;;;9.30;;
11761;SDS011;5938;47.098;15.474;2022-07-29T19:23:32;10.83;;;8.97;;
11761;SDS011;5938;47.098;15.474;2022-07-29T19:27:56;9.53;;;8.63;;
11761;SDS011;5938;47.098;15.474;2022-07-29T19:32:00;9.20;;;8.40;;
11761;SDS011;5938;47.098;15.474;2022-07-29T19:36:05;9.30;;;8.50;;
11761;SDS011;5938;47.098;15.474;2022-07-29T19:40:09;11.43;;;8.23;;
11761;SDS011;5938;47.098;15.474;2022-07-29T19:44:13;10.13;;;9.23;;
11761;SDS011;5938;47.098;15.474;2022-07-29T19:48:18;10.50;;;9.70;;
11761;SDS011;5938;47.098;15.474;2022-07-29T19:52:21;11.73;;;9.00;;
11761;SDS011;5938;47.098;15.474;2022-07-29T19:56:25;9.07;;;8.27;;
11761;SDS011;5938;47.098;15.474;2022-07-29T20:00:30;9.60;;;8.70;;
11761;SDS011;5938;47.098;15.474;2022-07-29T20:04:35;8.77;;;8.00;;
11761;SDS011;5938;47.098;15.474;2022-07-29T20:08:39;9.07;;;8.30;;
11761;SDS011;5938;47.098;15.474;2022-07-29T20:12:42;9.57;;;7.83;;
11761;SDS011;5938;47.098;15.474;2022-07-29T20:16:49;9.27;;;8.47;;
11761;SDS011;5938;47.098;15.474;2022-07-29T20:20:55;10.47;;;9.53;;
11761;SDS011;5938;47.098;15.474;2022-07-29T20:25:00;10.70;;;9.70;;
11761;SDS011;5938;47.098;15.474;2022-07-29T20:29:13;11.17;;;10.07;;
11761;SDS011;5938;47.098;15.474;2022-07-29T20:33:18;13.60;;;12.30;;
11761;SDS011;5938;47.098;15.474;2022-07-29T20:37:23;15.70;;;13.50;;
11761;SDS011;5938;47.098;15.474;2022-07-29T20:41:27;13.20;;;11.90;;
11761;SDS011;5938;47.098;15.474;2022-07-29T20:45:30;15.23;;;13.60;;
11761;SDS011;5938;47.098;15.474;2022-07-29T20:49:34;16.20;;;14.80;;
11761;SDS011;5938;47.098;15.474;2022-07-29T20:53:39;17.27;;;15.53;;
11761;SDS011;5938;47.098;15.474;2022-07-29T20:57:43;18.60;;;16.70;;
11761;SDS011;5938;47.098;15.474;2022-07-29T21:01:46;19.93;;;17.00;;
11761;SDS011;5938;47.098;15.474;2022-07-29T21:05:49;17.27;;;15.57;;
11761;SDS011;5938;47.098;15.474;2022-07-29T21:09:54;18.27;;;16.67;;
11761;SDS011;5938;47.098;15.474;2022-07-29T21:13:57;20.03;;;14.80;;
11761;SDS011;5938;47.098;15.474;2022-07-29T21:18:02;15.60;;;14.13;;
11761;SDS011;5938;47.098;15.474;2022-07-29T21:22:09;16.40;;;14.90;;
11761;SDS011;5938;47.098;15.474;2022-07-29T21:26:14;14.13;;;12.73;;
11761;SDS011;5938;47.098;15.474;2022-07-29T21:30:17;14.33;;;12.93;;
11761;SDS011;5938;47.098;15.474;2022-07-29T21:34:21;15.70;;;14.30;;
11761;SDS011;5938;47.098;15.474;2022-07-29T21:38:25;17.03;;;15.33;;
11761;SDS011;5938;47.098;15.474;2022-07-29T21:42:29;16.87;;;15.00;;
11761;SDS011;5938;47.098;15.474;2022-07-29T21:46:33;16.03;;;14.50;;
11761;SDS011;5938;47.098;15.474;2022-07-29T21:50:36;16.03;;;14.60;;
11761;SDS011;5938;47.098;15.474;2022-07-29T21:54:40;15.37;;;12.40;;
11761;SDS011;5938;47.098;15.474;2022-07-29T21:58:45;12.40;;;10.80;;
11761;SDS011;5938;47.098;15.474;2022-07-29T22:02:48;12.30;;;11.10;;
11761;SDS011;5938;47.098;15.474;2022-07-29T22:06:52;10.03;;;9.07;;
11761;SDS011;5938;47.098;15.474;2022-07-29T22:10:55;9.80;;;8.27;;
11761;SDS011;5938;47.098;15.474;2022-07-29T22:15:00;9.23;;;8.20;;
11761;SDS011;5938;47.098;15.474;2022-07-29T22:19:03;12.30;;;8.43;;
11761;SDS011;5938;47.098;15.474;2022-07-29T22:23:06;8.43;;;7.63;;
11761;SDS011;5938;47.098;15.474;2022-07-29T22:27:09;8.93;;;8.00;;
11761;SDS011;5938;47.098;15.474;2022-07-29T22:31:15;9.83;;;8.50;;
11761;SDS011;5938;47.098;15.474;2022-07-29T22:35:18;8.70;;;7.90;;
11761;SDS011;5938;47.098;15.474;2022-07-29T22:39:22;11.60;;;9.07;;
11761;SDS011;5938;47.098;15.474;2022-07-29T22:43:25;10.70;;;9.60;;
11761;SDS011;5938;47.098;15.474;2022-07-29T22:47:30;9.53;;;8.60;;
11761;SDS011;5938;47.098;15.474;2022-07-29T22:51:47;8.53;;;7.73;;
11761;SDS011;5938;47.098;15.474;2022-07-29T22:55:50;10.60;;;9.60;;
11761;SDS011;5938;47.098;15.474;2022-07-29T22:59:53;9.40;;;8.50;;
11761;SDS011;5938;47.098;15.474;2022-07-29T23:03:58;7.10;;;6.40;;
11761;SDS011;5938;47.098;15.474;2022-07-29T23:08:01;8.90;;;7.47;;
11761;SDS011;5938;47.098;15.474;2022-07-29T23:12:05;7.60;;;6.83;;
11761;SDS011;5938;47.098;15.474;2022-07-29T23:16:09;7.20;;;6.50;;
11761;SDS011;5938;47.098;15.474;2022-07-29T23:20:14;6.93;;;6.33;;
11761;SDS011;5938;47.098;15.474;2022-07-29T23:24:17;7.13;;;6.43;;
11761;SDS011;5938;47.098;15.474;2022-07-29T23:28:20;7.47;;;6.77;;
11761;SDS011;5938;47.098;15.474;2022-07-29T23:32:24;6.83;;;6.13;;
11761;SDS011;5938;47.098;15.474;2022-07-29T23:36:29;7.80;;;7.00;;
11761;SDS011;5938;47.098;15.474;2022-07-29T23:40:32;8.27;;;7.47;;
11761;SDS011;5938;47.098;15.474;2022-07-29T23:44:35;8.67;;;7.77;;
11761;SDS011;5938;47.098;15.474;2022-07-29T23:48:39;6.40;;;5.80;;
11761;SDS011;5938;47.098;15.474;2022-07-29T23:52:43;8.30;;;6.40;;
11761;SDS011;5938;47.098;15.474;2022-07-29T23:56:47;7.17;;;6.47;;
